Terminal Aerodrome Forecast
Issued by NWS

Home | Current Version | Previous Version | Text Only | Print | Product List | Glossary On
Versions: 1 2 3 4 5 6 7 8 9 10 11 12 13 14 15 16 17
208
FTUS41 KPBZ 132320
TAFBVI
TAF
KBVI 132320Z 1400/1424 15007KT 6SM -SN BKN035
     FM140200 17007KT 1SM -SN OVC025
     FM140400 21008KT 2SM -SN OVC015
     FM140800 25008KT 3SM -SN OVC020
     FM141000 29008KT P6SM VCSH OVC015
     FM141400 32008KT P6SM BKN025
     FM141800 32008KT P6SM BKN035
      AMD NOT SKED 1402/1412=

USA.gov is the U.S. government's official web portal to all federal, state and local government web resources and services.